Time;durP1;ratioP1;P1;durP2;ratioP2;P2;SDS_P1;SDS_P2;PMS_P1;PMS_P2;Temp;Humidity;BMP_temperature;BMP_pressure;BME280_temperature;BME280_humidity;BME280_pressure;Samples;Min_cycle;Max_cycle;Signal;HPM_P1;HPM_P2
2023/10/01 00:00:53;;;;;;;20.17;15.27;;;;;;;;;;5019211;28;20192;-78
2023/10/01 00:03:19;;;;;;;17.63;15.50;;;;;;;;;;5034297;28;20193;-78
2023/10/01 00:05:45;;;;;;;17.77;14.80;;;;;;;;;;5018779;28;20213;-78
2023/10/01 00:08:14;;;;;;;17.40;15.03;;;;;;;;;;5035269;28;20188;-78
2023/10/01 00:10:44;;;;;;;18.60;15.03;;;;;;;;;;5034944;28;20188;-77
2023/10/01 00:13:11;;;;;;;22.40;15.67;;;;;;;;;;5035440;28;20208;-78
2023/10/01 00:15:37;;;;;;;20.00;15.73;;;;;;;;;;5034941;28;20192;-77
2023/10/01 00:18:05;;;;;;;16.77;14.60;;;;;;;;;;5033959;28;20181;-78
2023/10/01 00:20:33;;;;;;;16.73;14.97;;;;;;;;;;5018666;28;20204;-78
2023/10/01 00:23:00;;;;;;;17.03;14.43;;;;;;;;;;5018324;28;20208;-78
2023/10/01 00:25:27;;;;;;;17.93;14.33;;;;;;;;;;5025321;28;20180;-78
2023/10/01 00:27:53;;;;;;;17.57;14.50;;;;;;;;;;5017670;28;20181;-78
2023/10/01 00:30:19;;;;;;;18.70;14.80;;;;;;;;;;5018632;28;20192;-78
2023/10/01 00:32:45;;;;;;;20.33;13.87;;;;;;;;;;5017575;28;20205;-78
2023/10/01 00:35:11;;;;;;;18.30;14.83;;;;;;;;;;5034885;28;20185;-78
2023/10/01 00:37:38;;;;;;;19.30;14.27;;;;;;;;;;5034190;28;20181;-78
2023/10/01 00:40:05;;;;;;;18.50;14.77;;;;;;;;;;5017754;28;20192;-78
2023/10/01 00:42:34;;;;;;;17.00;13.90;;;;;;;;;;5012120;28;20207;-77
2023/10/01 00:45:00;;;;;;;16.83;14.23;;;;;;;;;;5027168;28;20184;-78
2023/10/01 00:47:27;;;;;;;19.63;14.63;;;;;;;;;;5026534;28;20185;-77
2023/10/01 00:49:54;;;;;;;18.37;14.73;;;;;;;;;;5026577;28;20199;-76
2023/10/01 00:52:23;;;;;;;16.03;14.33;;;;;;;;;;5026482;28;20208;-76
2023/10/01 00:54:51;;;;;;;16.07;14.00;;;;;;;;;;5008288;28;20194;-76
2023/10/01 00:57:17;;;;;;;21.60;14.47;;;;;;;;;;5031986;28;20235;-77
2023/10/01 00:59:44;;;;;;;19.40;14.50;;;;;;;;;;5033864;28;20173;-77
2023/10/01 01:02:10;;;;;;;18.53;15.00;;;;;;;;;;5032151;28;20176;-78
2023/10/01 01:04:42;;;;;;;18.77;14.60;;;;;;;;;;5033655;28;20222;-78
2023/10/01 01:07:15;;;;;;;15.37;13.63;;;;;;;;;;5034058;28;20173;-78
2023/10/01 01:09:42;;;;;;;16.33;13.70;;;;;;;;;;5041672;28;20184;-78
2023/10/01 01:12:08;;;;;;;17.73;13.73;;;;;;;;;;5025774;22;20233;-77
2023/10/01 01:14:35;;;;;;;18.30;13.83;;;;;;;;;;5003785;28;20177;-78
2023/10/01 01:17:01;;;;;;;19.17;13.40;;;;;;;;;;5010582;28;20228;-78
2023/10/01 01:19:29;;;;;;;16.73;13.80;;;;;;;;;;5007948;28;20202;-78
2023/10/01 01:21:56;;;;;;;17.37;14.00;;;;;;;;;;4998322;28;20186;-78
2023/10/01 01:24:24;;;;;;;16.20;13.20;;;;;;;;;;4990805;28;20193;-79
2023/10/01 01:26:51;;;;;;;16.47;13.27;;;;;;;;;;5005632;28;20182;-78
2023/10/01 01:29:33;;;;;;;14.70;13.17;;;;;;;;;;4998056;28;20217;-78
2023/10/01 01:32:15;;;;;;;16.57;13.50;;;;;;;;;;5014376;28;20248;-79
2023/10/01 01:34:41;;;;;;;17.83;14.33;;;;;;;;;;5014235;28;20192;-79
2023/10/01 01:37:08;;;;;;;18.50;14.30;;;;;;;;;;4998283;28;20192;-79
2023/10/01 01:39:54;;;;;;;16.00;13.63;;;;;;;;;;5014341;28;20190;-79
2023/10/01 01:42:21;;;;;;;18.30;14.00;;;;;;;;;;5013458;28;20252;-77
2023/10/01 01:45:15;;;;;;;18.00;13.87;;;;;;;;;;5014756;28;20189;-77
2023/10/01 01:47:36;;;;;;;15.93;13.43;;;;;;;;;;5008074;28;20233;-77
2023/10/01 01:50:17;;;;;;;15.23;13.30;;;;;;;;;;4998146;28;20189;-77
2023/10/01 01:52:47;;;;;;;14.07;12.57;;;;;;;;;;4995566;28;20221;-77
2023/10/01 01:55:23;;;;;;;18.20;14.03;;;;;;;;;;4998041;28;20272;-77
2023/10/01 01:58:02;;;;;;;16.03;13.53;;;;;;;;;;5019809;28;20188;-77
2023/10/01 02:00:34;;;;;;;15.43;13.53;;;;;;;;;;5022268;28;20220;-78
2023/10/01 02:03:02;;;;;;;16.20;13.53;;;;;;;;;;5013401;28;20276;-77
2023/10/01 02:05:29;;;;;;;15.57;13.33;;;;;;;;;;5013427;28;20178;-79
2023/10/01 02:08:06;;;;;;;16.53;13.20;;;;;;;;;;4997389;28;20230;-79
2023/10/01 02:10:32;;;;;;;16.67;13.30;;;;;;;;;;4998471;28;20197;-79
2023/10/01 02:12:59;;;;;;;15.23;12.23;;;;;;;;;;5012579;28;20225;-79
2023/10/01 02:15:25;;;;;;;15.07;12.23;;;;;;;;;;5013566;28;20185;-79
2023/10/01 02:17:52;;;;;;;13.70;12.23;;;;;;;;;;5004833;28;20188;-79
2023/10/01 02:20:22;;;;;;;16.17;12.90;;;;;;;;;;5014237;28;20193;-79
2023/10/01 02:22:48;;;;;;;14.17;12.57;;;;;;;;;;5013804;28;20181;-79
2023/10/01 02:25:16;;;;;;;14.30;12.73;;;;;;;;;;4997749;28;20189;-79
2023/10/01 02:28:05;;;;;;;16.30;12.60;;;;;;;;;;5002626;28;20196;-79
2023/10/01 02:30:32;;;;;;;17.23;12.60;;;;;;;;;;5028763;28;20197;-79
2023/10/01 02:33:17;;;;;;;18.90;12.27;;;;;;;;;;5012293;28;20205;-79
2023/10/01 02:35:46;;;;;;;14.93;12.53;;;;;;;;;;5019097;28;20184;-79
2023/10/01 02:41:01;;;;;;;13.00;11.40;;;;;;;;;;5014737;28;20308;-79
2023/10/01 02:43:33;;;;;;;16.80;12.03;;;;;;;;;;5013339;28;20199;-79
2023/10/01 02:46:26;;;;;;;16.17;12.07;;;;;;;;;;5013932;28;20186;-79
2023/10/01 02:48:54;;;;;;;14.97;11.57;;;;;;;;;;5015586;28;20188;-79
2023/10/01 02:51:32;;;;;;;14.37;11.67;;;;;;;;;;5014866;28;20199;-79
2023/10/01 02:54:18;;;;;;;16.50;11.90;;;;;;;;;;4998391;28;20186;-79
2023/10/01 02:57:11;;;;;;;15.63;11.73;;;;;;;;;;5012713;28;20200;-79
2023/10/01 02:59:30;;;;;;;15.07;10.83;;;;;;;;;;5009884;28;20223;-79
2023/10/01 03:01:56;;;;;;;15.30;11.57;;;;;;;;;;5003985;28;20221;-79
2023/10/01 03:04:27;;;;;;;16.67;11.77;;;;;;;;;;5006052;28;20228;-80
2023/10/01 03:06:55;;;;;;;16.83;11.10;;;;;;;;;;4992096;28;20189;-79
2023/10/01 03:09:33;;;;;;;14.07;10.87;;;;;;;;;;4991736;28;20197;-79
2023/10/01 03:15:00;;;;;;;15.60;10.87;;;;;;;;;;5014401;28;20188;-79
2023/10/01 03:17:38;;;;;;;15.67;10.50;;;;;;;;;;5014877;28;20169;-79
2023/10/01 03:22:56;;;;;;;12.47;10.40;;;;;;;;;;4998759;28;20236;-79
2023/10/01 03:25:31;;;;;;;15.13;10.40;;;;;;;;;;5000144;28;20181;-79
2023/10/01 03:28:01;;;;;;;14.23;9.97;;;;;;;;;;5016039;28;20181;-80
2023/10/01 03:30:32;;;;;;;15.67;10.37;;;;;;;;;;5000435;28;20193;-79
2023/10/01 03:33:01;;;;;;;13.53;9.70;;;;;;;;;;5000099;28;20221;-79
2023/10/01 03:35:27;;;;;;;16.33;9.87;;;;;;;;;;4999794;28;20193;-77
2023/10/01 03:38:16;;;;;;;13.83;9.57;;;;;;;;;;5016287;28;20185;-77
2023/10/01 03:43:47;;;;;;;13.10;8.73;;;;;;;;;;5017303;28;20216;-79
2023/10/01 03:49:33;;;;;;;15.17;8.23;;;;;;;;;;5018061;28;20273;-77
2023/10/01 03:51:58;;;;;;;11.53;7.97;;;;;;;;;;5003817;28;20303;-78
2023/10/01 03:57:12;;;;;;;12.57;7.90;;;;;;;;;;5019680;28;20232;-77
2023/10/01 03:59:40;;;;;;;10.97;7.57;;;;;;;;;;5016664;28;20182;-78
2023/10/01 04:02:27;;;;;;;12.00;7.67;;;;;;;;;;5017423;28;20189;-79
2023/10/01 04:04:58;;;;;;;9.50;7.00;;;;;;;;;;5017076;28;20186;-78
2023/10/01 04:07:43;;;;;;;11.83;7.93;;;;;;;;;;5015729;28;20189;-77
2023/10/01 04:10:21;;;;;;;10.43;7.03;;;;;;;;;;5017243;28;20273;-79
2023/10/01 04:12:54;;;;;;;14.37;7.60;;;;;;;;;;5001580;28;20283;-79
2023/10/01 04:15:29;;;;;;;14.00;7.43;;;;;;;;;;5002270;28;20180;-79
2023/10/01 04:21:10;;;;;;;13.83;7.80;;;;;;;;;;4997366;28;20178;-79
2023/10/01 04:23:40;;;;;;;12.27;7.50;;;;;;;;;;4997338;28;20196;-79
2023/10/01 04:26:08;;;;;;;10.77;7.30;;;;;;;;;;5012949;28;20174;-79
2023/10/01 04:28:35;;;;;;;10.03;6.90;;;;;;;;;;5012705;28;20178;-79
2023/10/01 04:31:03;;;;;;;11.90;7.33;;;;;;;;;;5012157;28;20174;-79
2023/10/01 04:33:30;;;;;;;12.47;6.83;;;;;;;;;;4996163;28;20229;-79
2023/10/01 04:35:58;;;;;;;11.63;7.37;;;;;;;;;;5011292;28;20174;-79
2023/10/01 04:38:28;;;;;;;11.47;7.37;;;;;;;;;;5012540;28;20181;-79
2023/10/01 04:40:55;;;;;;;9.97;7.40;;;;;;;;;;5011871;28;20174;-79
2023/10/01 04:43:21;;;;;;;12.20;7.63;;;;;;;;;;5012060;28;20186;-80
2023/10/01 04:45:52;;;;;;;10.80;7.43;;;;;;;;;;5012106;28;20206;-79
2023/10/01 04:48:24;;;;;;;10.87;6.73;;;;;;;;;;5011471;28;20209;-79
2023/10/01 04:50:53;;;;;;;11.43;7.00;;;;;;;;;;5011615;28;20188;-79
2023/10/01 04:53:22;;;;;;;13.63;7.60;;;;;;;;;;5000410;28;20229;-79
2023/10/01 04:56:00;;;;;;;11.60;7.30;;;;;;;;;;5010468;28;20196;-79
2023/10/01 04:58:26;;;;;;;10.37;7.23;;;;;;;;;;5014633;28;20173;-79
2023/10/01 05:00:54;;;;;;;10.17;7.17;;;;;;;;;;5014521;28;20178;-80
2023/10/01 05:03:36;;;;;;;13.33;7.83;;;;;;;;;;5010066;28;20178;-79
2023/10/01 05:06:02;;;;;;;12.53;7.90;;;;;;;;;;5013218;28;20280;-79
2023/10/01 05:08:38;;;;;;;12.23;7.53;;;;;;;;;;5030631;28;20239;-77
2023/10/01 05:11:04;;;;;;;15.10;8.30;;;;;;;;;;5012430;28;20212;-77
2023/10/01 05:13:31;;;;;;;11.40;7.77;;;;;;;;;;5007996;28;20240;-77
2023/10/01 05:15:58;;;;;;;11.57;8.00;;;;;;;;;;5005454;28;20197;-78
2023/10/01 05:18:27;;;;;;;13.53;7.70;;;;;;;;;;5005722;28;20220;-77
2023/10/01 05:20:58;;;;;;;10.77;7.30;;;;;;;;;;5013713;28;20193;-78
2023/10/01 05:23:27;;;;;;;15.37;8.13;;;;;;;;;;4999118;28;20247;-78
2023/10/01 05:25:56;;;;;;;11.60;7.77;;;;;;;;;;5014440;28;20215;-80
2023/10/01 05:28:32;;;;;;;13.33;7.53;;;;;;;;;;5013838;28;20196;-79
2023/10/01 05:31:05;;;;;;;15.07;8.23;;;;;;;;;;5015603;28;20192;-80
2023/10/01 05:33:35;;;;;;;15.03;8.20;;;;;;;;;;5035577;28;20214;-79
2023/10/01 05:36:04;;;;;;;13.00;7.90;;;;;;;;;;5035226;28;20172;-79
2023/10/01 05:38:37;;;;;;;12.97;7.97;;;;;;;;;;5033821;28;20177;-79
2023/10/01 05:41:05;;;;;;;12.73;7.60;;;;;;;;;;5034227;28;20173;-79
2023/10/01 05:43:37;;;;;;;14.93;7.90;;;;;;;;;;5017931;28;20236;-79
2023/10/01 05:46:10;;;;;;;11.83;7.47;;;;;;;;;;4994649;28;20182;-80
2023/10/01 05:48:37;;;;;;;12.70;7.67;;;;;;;;;;4994529;28;20313;-79
2023/10/01 05:51:06;;;;;;;12.93;7.70;;;;;;;;;;4995803;28;20189;-79
2023/10/01 05:53:32;;;;;;;13.07;7.33;;;;;;;;;;4994383;28;20174;-80
2023/10/01 05:56:06;;;;;;;12.67;8.13;;;;;;;;;;4994555;28;20186;-79
2023/10/01 05:58:32;;;;;;;13.37;8.43;;;;;;;;;;4995404;28;20282;-78
2023/10/01 06:01:05;;;;;;;12.47;8.03;;;;;;;;;;4999229;28;20194;-78
2023/10/01 06:03:31;;;;;;;10.70;7.83;;;;;;;;;;4994532;28;20174;-78
2023/10/01 06:06:07;;;;;;;12.47;8.03;;;;;;;;;;4994047;28;20176;-78
2023/10/01 06:08:33;;;;;;;13.80;8.17;;;;;;;;;;4995630;28;20174;-77
2023/10/01 06:11:04;;;;;;;12.37;8.17;;;;;;;;;;5010333;28;20193;-77
2023/10/01 06:13:30;;;;;;;13.90;8.20;;;;;;;;;;5010404;28;20236;-78
2023/10/01 06:15:57;;;;;;;12.83;8.00;;;;;;;;;;4994270;28;20189;-78
2023/10/01 06:18:24;;;;;;;15.23;8.40;;;;;;;;;;4997272;28;20181;-78
2023/10/01 06:20:51;;;;;;;13.40;8.63;;;;;;;;;;5013589;28;20166;-78
2023/10/01 06:23:17;;;;;;;11.73;8.00;;;;;;;;;;5013585;28;20196;-78
2023/10/01 06:25:51;;;;;;;15.53;8.60;;;;;;;;;;5013627;28;20199;-77
2023/10/01 06:28:20;;;;;;;13.40;8.37;;;;;;;;;;5013621;28;20188;-78
2023/10/01 06:30:46;;;;;;;12.37;8.50;;;;;;;;;;4997561;28;20185;-78
2023/10/01 06:33:46;;;;;;;13.20;8.67;;;;;;;;;;5013384;28;20208;-78
2023/10/01 06:36:21;;;;;;;13.40;8.50;;;;;;;;;;5011622;28;20173;-78
2023/10/01 06:38:48;;;;;;;14.17;8.50;;;;;;;;;;5013454;28;20225;-78
2023/10/01 06:41:16;;;;;;;13.07;7.80;;;;;;;;;;4997151;28;20173;-78
2023/10/01 06:43:49;;;;;;;13.37;8.43;;;;;;;;;;5013654;28;20227;-78
2023/10/01 06:46:28;;;;;;;13.93;8.50;;;;;;;;;;5013759;28;20174;-78
2023/10/01 06:48:58;;;;;;;12.93;8.50;;;;;;;;;;5014156;28;20244;-78
2023/10/01 06:51:26;;;;;;;13.37;8.40;;;;;;;;;;5013188;28;20177;-78
2023/10/01 06:53:59;;;;;;;14.93;8.63;;;;;;;;;;5013347;28;20169;-78
2023/10/01 06:56:26;;;;;;;14.10;8.40;;;;;;;;;;4997917;28;20208;-78
2023/10/01 06:59:13;;;;;;;12.67;8.53;;;;;;;;;;5015613;28;20265;-79
2023/10/01 07:01:42;;;;;;;16.13;8.70;;;;;;;;;;5017364;28;20178;-79
2023/10/01 07:04:09;;;;;;;13.53;8.40;;;;;;;;;;5001287;28;20181;-78
2023/10/01 07:06:36;;;;;;;13.13;8.17;;;;;;;;;;5001327;28;20197;-78
2023/10/01 07:09:02;;;;;;;15.20;8.77;;;;;;;;;;5018228;28;20181;-78
2023/10/01 07:11:29;;;;;;;11.93;7.90;;;;;;;;;;5002569;28;20215;-76
2023/10/01 07:13:56;;;;;;;15.30;8.87;;;;;;;;;;5020349;28;20189;-75
2023/10/01 07:16:39;;;;;;;13.27;8.33;;;;;;;;;;5037637;28;20199;-75
2023/10/01 07:19:12;;;;;;;14.70;8.93;;;;;;;;;;5036598;28;20208;-75
2023/10/01 07:21:41;;;;;;;15.27;8.73;;;;;;;;;;5036546;28;20181;-77
2023/10/01 07:24:10;;;;;;;17.17;8.60;;;;;;;;;;5035393;28;20195;-78
2023/10/01 07:26:40;;;;;;;15.50;8.93;;;;;;;;;;5032999;28;20248;-78
2023/10/01 07:29:09;;;;;;;14.50;9.23;;;;;;;;;;5020087;28;20192;-78
2023/10/01 07:31:38;;;;;;;14.70;8.87;;;;;;;;;;5003097;28;20212;-78
2023/10/01 07:34:13;;;;;;;17.07;9.03;;;;;;;;;;5020047;28;20187;-78
2023/10/01 07:36:45;;;;;;;15.47;9.17;;;;;;;;;;5021282;28;20183;-78
2023/10/01 07:39:15;;;;;;;15.87;9.63;;;;;;;;;;5003417;28;20275;-78
2023/10/01 07:41:44;;;;;;;14.50;9.30;;;;;;;;;;5019971;28;20200;-78
2023/10/01 07:44:12;;;;;;;16.03;9.57;;;;;;;;;;5019374;28;20177;-78
2023/10/01 07:46:38;;;;;;;12.67;8.80;;;;;;;;;;5019882;28;20390;-78
2023/10/01 07:49:04;;;;;;;14.97;9.23;;;;;;;;;;5002892;28;20256;-78
2023/10/01 07:51:38;;;;;;;16.03;9.07;;;;;;;;;;5019491;28;20306;-78
2023/10/01 07:54:10;;;;;;;13.57;8.90;;;;;;;;;;5029378;28;20192;-78
2023/10/01 07:56:56;;;;;;;13.80;9.27;;;;;;;;;;5036309;28;20191;-78
2023/10/01 07:59:28;;;;;;;15.43;8.97;;;;;;;;;;5035950;28;20181;-78
2023/10/01 08:07:18;;;;;;;16.27;9.97;;;;;;;;;;5036676;28;20280;-76
2023/10/01 08:09:51;;;;;;;13.90;9.50;;;;;;;;;;5036333;28;20184;-76
2023/10/01 08:12:28;;;;;;;15.37;9.80;;;;;;;;;;5003197;28;20248;-78
2023/10/01 08:17:42;;;;;;;15.03;9.60;;;;;;;;;;5002524;28;20189;-78
2023/10/01 08:20:18;;;;;;;15.37;10.00;;;;;;;;;;5000266;28;20204;-78
2023/10/01 08:23:12;;;;;;;18.73;10.83;;;;;;;;;;5001043;28;20173;-78
2023/10/01 08:25:32;;;;;;;17.63;10.07;;;;;;;;;;5002335;28;20185;-78
2023/10/01 08:28:43;;;;;;;20.77;10.07;;;;;;;;;;5000019;28;20201;-77
2023/10/01 08:31:01;;;;;;;17.07;10.73;;;;;;;;;;5001170;28;20201;-77
2023/10/01 08:33:32;;;;;;;15.77;9.80;;;;;;;;;;5000802;28;20220;-77
2023/10/01 08:36:12;;;;;;;15.23;9.53;;;;;;;;;;5003241;28;20189;-77
2023/10/01 08:38:38;;;;;;;18.63;10.50;;;;;;;;;;5001556;28;20184;-77
2023/10/01 08:41:05;;;;;;;18.20;10.67;;;;;;;;;;5025695;23;20176;-77
2023/10/01 08:43:34;;;;;;;18.00;10.37;;;;;;;;;;5001678;28;20201;-77
2023/10/01 08:46:06;;;;;;;17.93;11.20;;;;;;;;;;5018910;28;20202;-77
2023/10/01 08:48:36;;;;;;;18.70;10.77;;;;;;;;;;5036422;28;20169;-76
2023/10/01 08:51:08;;;;;;;15.43;10.37;;;;;;;;;;5018131;28;20212;-76
2023/10/01 08:53:36;;;;;;;18.07;11.17;;;;;;;;;;5035580;28;20227;-77
2023/10/01 08:56:05;;;;;;;16.50;10.70;;;;;;;;;;5017355;28;20191;-77
2023/10/01 08:58:48;;;;;;;18.80;11.17;;;;;;;;;;5016785;28;20180;-77
2023/10/01 09:01:19;;;;;;;18.60;11.67;;;;;;;;;;4998426;28;20197;-76
2023/10/01 09:03:49;;;;;;;16.67;10.40;;;;;;;;;;5000724;28;20181;-77
2023/10/01 09:06:25;;;;;;;17.20;10.57;;;;;;;;;;5002454;28;20192;-76
2023/10/01 09:08:54;;;;;;;16.37;10.77;;;;;;;;;;5018503;28;20172;-77
2023/10/01 09:11:35;;;;;;;18.00;11.10;;;;;;;;;;5017822;28;20180;-77
2023/10/01 09:14:21;;;;;;;17.83;10.93;;;;;;;;;;5017707;28;20243;-77
2023/10/01 09:16:57;;;;;;;17.90;10.93;;;;;;;;;;5020387;28;20192;-77
2023/10/01 09:19:30;;;;;;;43.47;12.57;;;;;;;;;;5035178;28;20169;-78
2023/10/01 09:22:04;;;;;;;53.53;12.23;;;;;;;;;;5033646;28;20165;-79
2023/10/01 09:24:42;;;;;;;18.98;12.00;;;;;;;;;;5016608;28;20414;-79
2023/10/01 09:27:24;;;;;;;17.85;11.98;;;;;;;;;;5017490;28;20429;-79
2023/10/01 09:30:23;;;;;;;16.03;11.17;;;;;;;;;;5017769;28;20275;-79
2023/10/01 09:32:51;;;;;;;21.13;10.80;;;;;;;;;;5035035;28;20212;-79
2023/10/01 09:38:10;;;;;;;16.60;10.87;;;;;;;;;;5035363;28;20180;-77
2023/10/01 09:40:46;;;;;;;21.58;11.35;;;;;;;;;;5015183;28;20415;-77
2023/10/01 09:43:19;;;;;;;16.57;10.90;;;;;;;;;;5014894;28;20229;-77
2023/10/01 09:45:46;;;;;;;17.07;10.50;;;;;;;;;;4982346;28;20176;-77
2023/10/01 09:48:29;;;;;;;17.73;10.47;;;;;;;;;;4998296;28;20185;-77
2023/10/01 09:50:58;;;;;;;34.43;11.97;;;;;;;;;;4997362;28;20411;-79
2023/10/01 09:53:25;;;;;;;17.75;10.40;;;;;;;;;;4997226;28;20205;-79
2023/10/01 09:55:55;;;;;;;17.45;10.57;;;;;;;;;;4980890;28;20423;-79
2023/10/01 09:58:25;;;;;;;18.60;10.53;;;;;;;;;;4998009;28;20173;-79
2023/10/01 10:00:52;;;;;;;33.53;10.17;;;;;;;;;;5008358;28;20178;-79
2023/10/01 10:03:18;;;;;;;20.25;10.93;;;;;;;;;;5036864;28;20428;-79
2023/10/01 10:05:46;;;;;;;15.87;10.07;;;;;;;;;;5036561;28;20182;-79
2023/10/01 10:08:20;;;;;;;16.10;9.85;;;;;;;;;;5020753;28;20180;-79
2023/10/01 10:10:55;;;;;;;16.80;9.70;;;;;;;;;;5033175;28;20211;-79
2023/10/01 10:13:46;;;;;;;16.10;10.52;;;;;;;;;;5035293;28;20423;-79
2023/10/01 10:16:35;;;;;;;15.95;9.13;;;;;;;;;;5016362;28;20181;-79
2023/10/01 10:19:23;;;;;;;14.48;9.98;;;;;;;;;;5013433;28;20181;-79
2023/10/01 10:24:30;;;;;;;16.10;9.75;;;;;;;;;;5014329;28;20212;-80
2023/10/01 10:27:07;;;;;;;13.98;9.57;;;;;;;;;;5016030;28;20243;-80
2023/10/01 10:29:57;;;;;;;13.73;9.20;;;;;;;;;;5016616;28;20168;-80
2023/10/01 10:32:26;;;;;;;13.73;9.32;;;;;;;;;;5031086;28;20211;-79
2023/10/01 10:35:05;;;;;;;14.73;10.23;;;;;;;;;;5015969;28;20432;-79
2023/10/01 10:37:37;;;;;;;15.05;9.40;;;;;;;;;;5013119;28;20247;-79
2023/10/01 10:42:38;;;;;;;15.18;9.38;;;;;;;;;;5000317;28;20235;-80
2023/10/01 10:45:19;;;;;;;14.15;9.07;;;;;;;;;;5007363;28;20193;-80
2023/10/01 10:47:58;;;;;;;13.85;8.88;;;;;;;;;;5053460;28;20172;-79
2023/10/01 10:50:39;;;;;;;16.40;9.60;;;;;;;;;;5032228;28;20180;-80
2023/10/01 10:53:14;;;;;;;13.43;9.45;;;;;;;;;;5031052;28;20437;-79
2023/10/01 10:55:50;;;;;;;16.70;8.80;;;;;;;;;;5019328;28;20215;-80
2023/10/01 10:58:16;;;;;;;14.48;9.07;;;;;;;;;;5034399;28;20172;-79
2023/10/01 11:00:42;;;;;;;12.30;8.70;;;;;;;;;;5000068;28;20199;-80
2023/10/01 11:03:11;;;;;;;15.90;9.55;;;;;;;;;;4998650;28;20188;-79
2023/10/01 11:05:52;;;;;;;13.77;9.15;;;;;;;;;;5015347;28;20181;-79
2023/10/01 11:08:28;;;;;;;15.13;9.13;;;;;;;;;;5001864;28;20191;-79
2023/10/01 11:10:55;;;;;;;14.77;9.05;;;;;;;;;;5015971;28;20180;-80
2023/10/01 11:13:45;;;;;;;15.52;9.45;;;;;;;;;;5000667;28;20204;-80
2023/10/01 11:16:16;;;;;;;13.93;9.10;;;;;;;;;;5016254;28;20181;-77
2023/10/01 11:18:45;;;;;;;15.32;9.30;;;;;;;;;;5015792;28;20180;-77
2023/10/01 11:21:24;;;;;;;14.52;9.18;;;;;;;;;;5015932;28;20180;-77
2023/10/01 11:23:53;;;;;;;14.35;9.50;;;;;;;;;;5015725;28;20184;-77
2023/10/01 11:26:29;;;;;;;14.63;9.75;;;;;;;;;;5033574;28;20215;-77
2023/10/01 11:29:00;;;;;;;15.07;9.60;;;;;;;;;;5017083;28;20236;-77
2023/10/01 11:31:31;;;;;;;12.65;9.18;;;;;;;;;;5015833;28;20187;-79
2023/10/01 11:34:05;;;;;;;15.40;9.90;;;;;;;;;;5015758;28;20169;-79
2023/10/01 11:36:37;;;;;;;15.07;9.60;;;;;;;;;;4999802;28;20177;-79
2023/10/01 11:39:04;;;;;;;13.18;8.80;;;;;;;;;;5033297;28;20176;-80
2023/10/01 11:41:41;;;;;;;15.40;9.55;;;;;;;;;;5015750;28;20228;-79
2023/10/01 11:44:08;;;;;;;15.02;8.95;;;;;;;;;;5016665;28;20172;-79
2023/10/01 11:49:32;;;;;;;14.27;9.45;;;;;;;;;;5022393;28;20199;-79
2023/10/01 11:52:05;;;;;;;16.95;9.18;;;;;;;;;;5004114;28;20208;-80
2023/10/01 11:54:44;;;;;;;17.38;9.40;;;;;;;;;;5003687;28;20208;-80
2023/10/01 11:57:23;;;;;;;13.95;9.40;;;;;;;;;;5021070;28;20173;-79
2023/10/01 11:59:57;;;;;;;13.35;9.40;;;;;;;;;;5017932;28;20417;-79
2023/10/01 12:02:26;;;;;;;14.18;9.50;;;;;;;;;;5018375;28;20469;-79
2023/10/01 12:05:00;;;;;;;13.93;9.55;;;;;;;;;;5018660;28;20413;-79
2023/10/01 12:07:39;;;;;;;14.70;9.13;;;;;;;;;;5018426;28;20410;-79
2023/10/01 12:10:07;;;;;;;14.80;8.95;;;;;;;;;;5018222;28;20410;-79
2023/10/01 12:12:36;;;;;;;12.75;8.48;;;;;;;;;;5018976;28;20200;-79
2023/10/01 12:18:07;;;;;;;15.18;9.23;;;;;;;;;;5032257;28;20188;-79
2023/10/01 12:20:33;;;;;;;15.38;9.10;;;;;;;;;;5035356;28;20232;-79
2023/10/01 12:23:11;;;;;;;12.85;8.55;;;;;;;;;;5035096;28;20622;-77
2023/10/01 12:25:47;;;;;;;12.73;8.40;;;;;;;;;;5035198;28;20176;-76
2023/10/01 12:28:18;;;;;;;15.75;9.02;;;;;;;;;;5035113;28;20181;-77
2023/10/01 12:30:57;;;;;;;12.52;8.50;;;;;;;;;;5036140;28;20173;-77
2023/10/01 12:33:23;;;;;;;15.18;9.07;;;;;;;;;;5035538;28;20483;-77
2023/10/01 12:35:49;;;;;;;12.40;7.88;;;;;;;;;;5034796;28;20238;-77
2023/10/01 12:40:43;;;;;;;14.27;8.90;;;;;;;;;;5019164;28;20185;-80
2023/10/01 12:45:58;;;;;;;13.50;8.68;;;;;;;;;;5036209;28;20188;-79
2023/10/01 12:48:24;;;;;;;13.25;8.02;;;;;;;;;;5035759;28;20173;-79
2023/10/01 12:51:08;;;;;;;13.68;8.20;;;;;;;;;;5016807;28;20180;-80
2023/10/01 12:53:35;;;;;;;13.88;8.93;;;;;;;;;;5009608;28;20481;-80
2023/10/01 12:56:05;;;;;;;13.52;7.97;;;;;;;;;;5001130;28;20187;-80
2023/10/01 12:58:39;;;;;;;13.80;8.38;;;;;;;;;;5017769;28;20192;-80
2023/10/01 13:01:23;;;;;;;13.40;7.80;;;;;;;;;;5018019;28;20176;-80
2023/10/01 13:03:50;;;;;;;11.63;7.57;;;;;;;;;;5018094;28;20177;-80
2023/10/01 13:06:16;;;;;;;12.43;6.80;;;;;;;;;;5001794;28;20184;-79
2023/10/01 13:08:42;;;;;;;12.20;8.00;;;;;;;;;;4996942;28;20435;-79
2023/10/01 13:11:42;;;;;;;11.43;7.93;;;;;;;;;;4981682;28;20442;-79
2023/10/01 13:13:54;;;;;;;12.02;7.70;;;;;;;;;;5015012;28;20438;-78
2023/10/01 13:16:21;;;;;;;13.82;8.10;;;;;;;;;;4990330;28;20461;-78
2023/10/01 13:18:49;;;;;;;13.47;8.10;;;;;;;;;;5016517;28;20479;-78
2023/10/01 13:21:15;;;;;;;11.80;8.23;;;;;;;;;;5035143;28;20439;-78
2023/10/01 13:23:41;;;;;;;11.20;7.40;;;;;;;;;;5037595;28;20180;-78
2023/10/01 13:26:31;;;;;;;12.07;7.63;;;;;;;;;;5037374;28;20176;-78
2023/10/01 13:29:00;;;;;;;19.30;8.77;;;;;;;;;;5002920;28;20421;-76
2023/10/01 13:33:56;;;;;;;10.75;7.55;;;;;;;;;;5017518;28;20238;-76
2023/10/01 13:36:35;;;;;;;13.05;7.85;;;;;;;;;;5017289;28;20173;-76
2023/10/01 14:09:09;;;;;;;12.70;8.30;;;;;;;;;;5018952;28;20416;-76
2023/10/01 14:11:39;;;;;;;11.85;7.93;;;;;;;;;;5000110;28;20184;-76
2023/10/01 14:14:07;;;;;;;11.68;7.45;;;;;;;;;;5017215;28;20179;-77
2023/10/01 14:16:33;;;;;;;14.93;9.07;;;;;;;;;;5000281;28;20417;-76
2023/10/01 14:19:20;;;;;;;12.55;8.25;;;;;;;;;;4997391;28;20232;-77
2023/10/01 14:21:51;;;;;;;13.40;7.85;;;;;;;;;;5014508;28;20270;-77
2023/10/01 14:24:25;;;;;;;11.60;8.00;;;;;;;;;;4997173;28;20177;-77
2023/10/01 14:26:55;;;;;;;12.43;7.90;;;;;;;;;;5014390;28;20173;-77
2023/10/01 14:29:25;;;;;;;12.23;8.02;;;;;;;;;;5014710;28;20165;-77
2023/10/01 14:31:54;;;;;;;13.65;8.43;;;;;;;;;;4997515;28;20197;-77
2023/10/01 14:34:20;;;;;;;14.70;8.55;;;;;;;;;;4996894;28;20272;-77
2023/10/01 14:36:47;;;;;;;12.23;7.95;;;;;;;;;;4996853;28;20173;-76
2023/10/01 14:39:14;;;;;;;15.20;9.32;;;;;;;;;;5015026;28;20173;-76
2023/10/01 14:41:45;;;;;;;15.15;9.07;;;;;;;;;;5008089;22;20238;-76
2023/10/01 14:44:13;;;;;;;13.25;9.00;;;;;;;;;;5014107;28;20209;-76
2023/10/01 14:46:47;;;;;;;14.05;9.02;;;;;;;;;;4980576;28;20184;-76
2023/10/01 14:49:17;;;;;;;13.88;9.38;;;;;;;;;;4982083;28;20411;-76
2023/10/01 14:51:48;;;;;;;12.18;8.65;;;;;;;;;;5000341;28;20207;-80
2023/10/01 14:54:17;;;;;;;16.45;10.40;;;;;;;;;;4999453;28;20421;-79
2023/10/01 14:56:45;;;;;;;13.35;9.13;;;;;;;;;;5015850;28;20180;-79
2023/10/01 14:59:14;;;;;;;13.45;9.07;;;;;;;;;;5000053;28;20177;-79
2023/10/01 15:01:41;;;;;;;15.07;10.38;;;;;;;;;;5000339;28;20188;-79
2023/10/01 15:04:17;;;;;;;15.93;11.55;;;;;;;;;;5015913;28;20219;-79
2023/10/01 15:06:56;;;;;;;15.88;10.40;;;;;;;;;;5014949;28;20421;-79
2023/10/01 15:09:29;;;;;;;14.13;10.68;;;;;;;;;;5014350;28;20421;-78
2023/10/01 15:11:55;;;;;;;14.70;10.32;;;;;;;;;;5033175;28;20203;-78
2023/10/01 15:14:26;;;;;;;14.90;10.48;;;;;;;;;;5015979;28;20227;-78
2023/10/01 15:16:53;;;;;;;14.27;9.93;;;;;;;;;;5008601;28;20177;-78
2023/10/01 15:19:19;;;;;;;15.80;10.82;;;;;;;;;;5015099;28;20406;-78
2023/10/01 15:21:48;;;;;;;16.08;10.27;;;;;;;;;;5020039;28;20567;-79
2023/10/01 15:24:14;;;;;;;18.27;11.10;;;;;;;;;;5004245;28;20413;-79
2023/10/01 15:26:43;;;;;;;14.82;10.63;;;;;;;;;;5034282;28;20263;-78
2023/10/01 15:29:11;;;;;;;14.53;10.83;;;;;;;;;;5020977;28;20424;-78
2023/10/01 15:31:38;;;;;;;13.93;10.07;;;;;;;;;;5037224;28;20161;-78
2023/10/01 15:34:05;;;;;;;14.83;10.93;;;;;;;;;;5032303;28;20481;-78
2023/10/01 15:36:41;;;;;;;15.80;11.00;;;;;;;;;;5013982;28;20417;-78
2023/10/01 15:39:27;;;;;;;15.37;11.00;;;;;;;;;;5015955;28;20413;-78
2023/10/01 15:42:08;;;;;;;17.13;11.25;;;;;;;;;;5014444;28;20533;-77
2023/10/01 15:44:43;;;;;;;16.00;11.45;;;;;;;;;;5004480;28;20487;-77
2023/10/01 15:47:10;;;;;;;15.73;10.80;;;;;;;;;;5013373;28;20417;-77
2023/10/01 15:49:40;;;;;;;16.08;10.90;;;;;;;;;;5007532;28;20438;-78
2023/10/01 15:52:10;;;;;;;15.05;10.35;;;;;;;;;;5031926;28;20433;-77
2023/10/01 15:54:37;;;;;;;15.53;11.33;;;;;;;;;;4999438;28;20449;-76
2023/10/01 15:57:04;;;;;;;13.93;10.18;;;;;;;;;;4997967;28;20427;-77
2023/10/01 15:59:30;;;;;;;16.85;10.60;;;;;;;;;;5015067;28;20426;-76
2023/10/01 16:01:59;;;;;;;15.07;11.02;;;;;;;;;;4997971;28;20430;-76
2023/10/01 16:04:25;;;;;;;14.50;10.57;;;;;;;;;;4987342;28;20432;-76
2023/10/01 16:07:03;;;;;;;15.40;10.82;;;;;;;;;;5023714;28;20427;-76
2023/10/01 16:09:39;;;;;;;16.27;10.65;;;;;;;;;;5014648;28;20465;-76